createdAt,value
2019-04-21T00:04:07.414Z,5.91
2019-04-21T00:09:31.219Z,5.80
2019-04-21T00:14:22.164Z,5.30
2019-04-21T00:19:24.277Z,5.51
2019-04-21T00:24:39.786Z,5.43
2019-04-21T00:29:50.118Z,5.23
2019-04-21T00:34:42.038Z,5.14
2019-04-21T00:40:06.148Z,5.33
2019-04-21T00:45:03.508Z,5.20
2019-04-21T00:50:21.543Z,4.99
2019-04-21T00:55:34.194Z,5.02
2019-04-21T01:00:32.401Z,5.04
2019-04-21T01:05:42.904Z,4.78
2019-04-21T01:10:40.936Z,5.04
2019-04-21T01:15:53.347Z,5.00
2019-04-21T01:20:37.933Z,4.13
2019-04-21T01:25:56.633Z,5.10
2019-04-21T01:31:08.838Z,5.00
2019-04-21T01:36:14.558Z,5.33
2019-04-21T01:41:26.508Z,4.65
2019-04-21T01:46:28.158Z,5.12
2019-04-21T01:51:37.117Z,5.40
2019-04-21T01:56:52.652Z,5.26
2019-04-21T02:02:00.132Z,5.21
2019-04-21T02:07:03.086Z,4.85
2019-04-21T02:12:17.719Z,5.24
2019-04-21T02:17:20.137Z,4.62
2019-04-21T02:22:28.712Z,4.60
2019-04-21T02:27:29.851Z,4.70
2019-04-21T02:32:47.910Z,5.24
2019-04-21T02:38:11.785Z,5.21
2019-04-21T02:43:07.494Z,5.37
2019-04-21T02:53:20.434Z,5.69
2019-04-21T02:58:25.528Z,5.57
2019-04-21T03:03:36.462Z,5.57
2019-04-21T03:08:44.810Z,5.84
2019-04-21T03:13:46.969Z,5.62
2019-04-21T03:18:56.838Z,5.43
2019-04-21T03:29:05.856Z,5.38
2019-04-21T03:34:51.195Z,5.56
2019-04-21T03:39:11.363Z,5.59
2019-04-21T03:44:22.989Z,5.67
2019-04-21T03:49:45.511Z,5.25
2019-04-21T03:54:49.222Z,5.60
2019-04-21T03:59:48.881Z,4.91
2019-04-21T04:04:53.113Z,5.12
2019-04-21T04:15:13.830Z,6.44
2019-04-21T04:20:20.479Z,8.14
2019-04-21T04:25:17.481Z,9.10
2019-04-21T04:35:45.262Z,11.74
2019-04-21T04:40:55.582Z,12.37
2019-04-21T04:51:03.815Z,8.88
2019-04-21T04:56:12.472Z,10.07
2019-04-21T05:11:46.061Z,9.17
2019-04-21T05:26:39.222Z,8.59
2019-04-21T05:31:57.010Z,9.88
2019-04-21T05:37:01.338Z,8.70
2019-04-21T05:41:58.707Z,9.70
2019-04-21T05:52:22.539Z,10.19
2019-04-21T05:57:33.613Z,9.03
2019-04-21T06:02:35.197Z,10.40
2019-04-21T06:07:47.479Z,9.33
2019-04-21T06:12:59.184Z,10.89
2019-04-21T06:18:05.303Z,11.16
2019-04-21T06:23:13.022Z,9.52
2019-04-21T06:28:25.587Z,12.00
2019-04-21T06:33:32.265Z,12.26
2019-04-21T06:38:59.582Z,11.70
2019-04-21T06:44:12.980Z,12.59
2019-04-21T06:49:02.865Z,13.30
2019-04-21T06:54:16.023Z,13.75
2019-04-21T06:59:15.131Z,14.27
2019-04-21T07:04:25.208Z,14.64
2019-04-21T07:09:45.496Z,14.47
2019-04-21T07:14:32.992Z,15.07
2019-04-21T07:20:00.190Z,14.48
2019-04-21T07:24:48.151Z,15.61
2019-04-21T07:29:59.663Z,15.62
2019-04-21T07:35:11.808Z,15.61
2019-04-21T07:40:09.138Z,14.81
2019-04-21T07:45:16.888Z,16.04
2019-04-21T07:50:46.909Z,16.63
2019-04-21T07:55:33.982Z,17.46
2019-04-21T08:06:10.272Z,18.09
2019-04-21T08:11:13.911Z,17.86
2019-04-21T08:16:20.054Z,17.58
2019-04-21T08:21:24.626Z,18.78
2019-04-21T08:26:38.312Z,19.00
2019-04-21T08:31:53.018Z,18.89
2019-04-21T08:36:40.707Z,19.31
2019-04-21T08:41:49.636Z,19.47
2019-04-21T08:47:02.627Z,19.33
2019-04-21T08:52:34.424Z,19.96
2019-04-21T08:57:24.550Z,19.78
2019-04-21T09:02:44.179Z,19.80
2019-04-21T09:07:55.694Z,20.04
2019-04-21T09:12:51.750Z,20.02
2019-04-21T09:17:53.432Z,20.43
2019-04-21T09:23:11.800Z,20.40
2019-04-21T09:28:12.212Z,20.21
2019-04-21T09:33:00.520Z,18.87
2019-04-21T09:38:16.015Z,18.14
2019-04-21T09:43:18.694Z,19.14
2019-04-21T09:48:22.521Z,19.41
2019-04-21T09:53:33.027Z,18.61
2019-04-21T09:58:39.878Z,19.27
2019-04-21T10:03:44.573Z,20.23
2019-04-21T10:08:51.842Z,20.11
2019-04-21T10:13:52.986Z,19.82
2019-04-21T10:18:58.764Z,20.06
2019-04-21T10:24:04.165Z,20.86
2019-04-21T10:29:16.281Z,20.47
2019-04-21T10:34:15.238Z,20.40
2019-04-21T10:39:20.013Z,21.41
2019-04-21T10:44:25.199Z,21.41
2019-04-21T10:49:30.781Z,21.11
2019-04-21T10:54:49.221Z,21.92
2019-04-21T10:59:46.189Z,21.80
2019-04-21T11:04:49.036Z,22.06
2019-04-21T11:09:56.096Z,21.82
2019-04-21T11:15:01.512Z,21.48
2019-04-21T11:20:06.694Z,20.21
2019-04-21T11:25:12.909Z,21.22
2019-04-21T11:30:17.867Z,20.59
2019-04-21T11:35:23.380Z,21.25
2019-04-21T11:40:29.653Z,21.49
2019-04-21T11:45:36.669Z,22.00
2019-04-21T11:50:43.329Z,21.01
2019-04-21T11:55:51.793Z,21.65
2019-04-21T12:00:57.941Z,21.48
2019-04-21T12:06:03.699Z,21.57
2019-04-21T12:11:09.415Z,21.81
2019-04-21T12:16:14.982Z,20.82
2019-04-21T12:21:21.185Z,21.13
2019-04-21T12:26:26.555Z,21.59
2019-04-21T12:31:33.762Z,21.68
2019-04-21T12:36:40.016Z,21.78
2019-04-21T12:41:46.385Z,21.55
2019-04-21T12:46:51.935Z,21.38
2019-04-21T12:51:57.686Z,21.53
2019-04-21T12:57:05.563Z,21.22
2019-04-21T13:02:16.059Z,21.75
2019-04-21T13:07:31.184Z,21.16
2019-04-21T13:12:42.172Z,21.77
2019-04-21T13:17:54.150Z,21.88
2019-04-21T13:23:01.889Z,22.27
2019-04-21T13:28:07.265Z,22.27
2019-04-21T13:33:13.348Z,21.79
2019-04-21T13:38:29.157Z,22.05
2019-04-21T13:43:27.356Z,21.86
2019-04-21T13:48:42.479Z,21.87
2019-04-21T13:53:46.004Z,21.88
2019-04-21T13:58:56.399Z,22.54
2019-04-21T14:04:02.918Z,22.00
2019-04-21T14:09:11.326Z,21.31
2019-04-21T14:14:26.062Z,21.64
2019-04-21T14:19:35.761Z,21.48
2019-04-21T14:24:43.660Z,21.53
2019-04-21T14:29:49.288Z,21.47
2019-04-21T14:35:04.840Z,21.80
2019-04-21T14:40:20.109Z,21.32
2019-04-21T14:45:28.590Z,21.93
2019-04-21T14:50:48.332Z,21.74
2019-04-21T14:55:57.608Z,22.16
2019-04-21T15:01:08.512Z,22.22
2019-04-21T15:06:13.906Z,22.08
2019-04-21T15:11:20.047Z,22.23
2019-04-21T15:16:25.214Z,22.31
2019-04-21T15:21:33.340Z,22.48
2019-04-21T15:26:40.347Z,21.72
2019-04-21T15:31:50.512Z,21.61
2019-04-21T15:36:58.008Z,21.62
2019-04-21T15:42:03.170Z,21.52
2019-04-21T15:47:10.318Z,21.26
2019-04-21T15:52:15.914Z,20.99
2019-04-21T15:57:35.517Z,21.42
2019-04-21T16:02:44.500Z,20.86
2019-04-21T16:07:50.321Z,20.81
2019-04-21T16:12:56.018Z,21.04
2019-04-21T16:18:01.648Z,20.83
2019-04-21T16:23:06.682Z,19.52
2019-04-21T16:28:11.464Z,20.40
2019-04-21T16:33:16.307Z,20.41
2019-04-21T16:38:21.621Z,20.14
2019-04-21T16:43:27.054Z,20.30
2019-04-21T16:48:33.767Z,19.98
2019-04-21T16:53:41.874Z,20.02
2019-04-21T16:58:48.621Z,19.93
2019-04-21T17:03:54.558Z,19.46
2019-04-21T17:09:00.837Z,18.43
2019-04-21T17:14:17.692Z,18.41
2019-04-21T17:19:21.963Z,18.18
2019-04-21T17:24:20.202Z,18.14
2019-04-21T17:29:25.337Z,17.69
2019-04-21T17:34:32.409Z,17.01
2019-04-21T17:39:38.615Z,17.14
2019-04-21T17:44:43.733Z,16.90
2019-04-21T17:49:51.365Z,16.65
2019-04-21T17:55:10.373Z,16.57
2019-04-21T18:01:01.405Z,16.32
2019-04-21T18:05:38.960Z,16.50
2019-04-21T18:10:45.310Z,16.23
2019-04-21T18:15:51.637Z,16.15
2019-04-21T18:20:46.115Z,16.01
2019-04-21T18:25:59.967Z,15.26
2019-04-21T18:31:06.877Z,15.61
2019-04-21T18:36:24.549Z,15.59
2019-04-21T18:41:32.220Z,14.86
2019-04-21T18:47:09.639Z,14.15
2019-04-21T18:52:03.608Z,13.84
2019-04-21T18:57:16.642Z,13.45
2019-04-21T19:02:13.567Z,13.38
2019-04-21T19:07:25.508Z,14.02
2019-04-21T19:13:16.164Z,13.78
2019-04-21T19:22:52.221Z,13.98
2019-04-21T19:27:59.051Z,14.34
2019-04-21T19:33:11.622Z,13.78
2019-04-21T19:38:06.710Z,13.63
2019-04-21T19:43:29.437Z,13.57
2019-04-21T19:48:36.300Z,13.30
2019-04-21T19:53:37.062Z,13.01
2019-04-21T19:58:33.845Z,12.39
2019-04-21T20:03:36.752Z,12.43
2019-04-21T20:09:00.737Z,11.81
2019-04-21T20:14:44.989Z,12.28
2019-04-21T20:19:02.356Z,11.55
2019-04-21T20:24:10.708Z,11.10
2019-04-21T20:29:27.660Z,11.57
2019-04-21T20:34:38.505Z,11.37
2019-04-21T20:39:30.748Z,11.29
2019-04-21T20:44:52.623Z,10.87
2019-04-21T20:49:50.533Z,10.54
2019-04-21T20:55:03.266Z,10.57
2019-04-21T21:00:12.389Z,10.15
2019-04-21T21:05:14.313Z,10.57
2019-04-21T21:10:20.534Z,9.99
2019-04-21T21:15:30.302Z,9.57
2019-04-21T21:20:35.776Z,10.16
2019-04-21T21:25:46.260Z,9.87
2019-04-21T21:30:43.522Z,9.61
2019-04-21T21:35:50.104Z,9.26
2019-04-21T21:40:57.133Z,8.99
2019-04-21T21:45:57.336Z,9.01
2019-04-21T21:51:05.794Z,8.84
2019-04-21T21:56:05.126Z,9.32
2019-04-21T22:01:14.789Z,9.38
2019-04-21T22:06:23.963Z,9.28
2019-04-21T22:11:27.545Z,9.33
2019-04-21T22:16:45.481Z,9.18
2019-04-21T22:21:53.565Z,8.81
2019-04-21T22:26:45.260Z,8.96
2019-04-21T22:31:53.980Z,8.96
2019-04-21T22:37:16.590Z,9.00
2019-04-21T22:42:13.388Z,8.90
2019-04-21T22:47:17.512Z,8.50
2019-04-21T22:52:20.424Z,8.48
2019-04-21T22:57:26.569Z,8.50
2019-04-21T23:02:33.221Z,8.13
2019-04-21T23:07:44.202Z,7.61
2019-04-21T23:12:43.748Z,7.58
2019-04-21T23:18:06.877Z,8.34
2019-04-21T23:23:22.108Z,8.24
2019-04-21T23:28:17.181Z,7.91
2019-04-21T23:33:12.298Z,7.95
2019-04-21T23:38:14.728Z,7.45
2019-04-21T23:43:24.440Z,7.65
2019-04-21T23:48:39.155Z,7.35
2019-04-21T23:53:33.349Z,7.79
2019-04-21T23:58:38.860Z,7.84
